createdAt,value
2023-03-17T00:00:53.384Z,61.50
2023-03-17T00:03:25.994Z,61.60
2023-03-17T00:05:58.276Z,61.80
2023-03-17T00:08:31.173Z,62.10
2023-03-17T00:11:01.128Z,62.20
2023-03-17T00:13:33.844Z,62.40
2023-03-17T00:16:05.019Z,62.50
2023-03-17T00:18:35.585Z,62.60
2023-03-17T00:21:05.829Z,62.50
2023-03-17T00:23:35.894Z,62.60
2023-03-17T00:26:05.205Z,62.70
2023-03-17T00:28:34.271Z,62.80
2023-03-17T00:31:14.348Z,63.10
2023-03-17T00:33:45.342Z,63.10
2023-03-17T00:36:22.620Z,63.20
2023-03-17T00:38:52.776Z,63.30
2023-03-17T00:41:22.787Z,63.40
2023-03-17T00:43:51.926Z,63.60
2023-03-17T00:46:27.657Z,63.70
2023-03-17T00:48:57.062Z,63.70
2023-03-17T00:51:26.249Z,63.90
2023-03-17T00:53:57.143Z,64.00
2023-03-17T00:56:26.341Z,64.10
2023-03-17T00:58:55.465Z,64.10
2023-03-17T01:01:25.124Z,64.10
2023-03-17T01:03:54.276Z,64.10
2023-03-17T01:06:23.399Z,64.20
2023-03-17T01:08:52.693Z,64.20
2023-03-17T01:11:22.840Z,64.30
2023-03-17T01:13:52.732Z,64.40
2023-03-17T01:16:22.680Z,64.50
2023-03-17T01:18:51.837Z,64.50
2023-03-17T01:21:22.564Z,64.60
2023-03-17T01:23:51.691Z,64.60
2023-03-17T01:26:20.761Z,64.60
2023-03-17T01:28:50.413Z,64.60
2023-03-17T01:31:20.518Z,64.60
2023-03-17T01:33:49.911Z,64.60
2023-03-17T01:36:19.032Z,64.70
2023-03-17T01:38:49.631Z,64.90
2023-03-17T01:41:20.803Z,65.00
2023-03-17T01:43:50.145Z,65.00
2023-03-17T01:46:29.394Z,65.10
2023-03-17T01:49:07.761Z,65.20
2023-03-17T01:51:55.878Z,65.40
2023-03-17T01:54:43.161Z,66.30
2023-03-17T01:57:45.051Z,65.70
2023-03-17T02:00:20.480Z,66.60
2023-03-17T02:02:57.034Z,66.10
2023-03-17T02:05:29.865Z,66.20
2023-03-17T02:08:00.090Z,66.40
2023-03-17T02:10:30.978Z,66.40
2023-03-17T02:13:05.560Z,66.40
2023-03-17T02:15:52.256Z,66.50
2023-03-17T02:18:27.330Z,66.50
2023-03-17T02:20:56.632Z,66.50
2023-03-17T02:23:25.813Z,66.50
2023-03-17T02:25:55.695Z,66.60
2023-03-17T02:28:28.698Z,66.60
2023-03-17T02:30:58.168Z,66.70
2023-03-17T02:33:27.767Z,66.80
2023-03-17T02:35:57.646Z,66.80
2023-03-17T02:38:27.130Z,66.80
2023-03-17T02:40:56.548Z,66.90
2023-03-17T02:43:25.633Z,66.90
2023-03-17T02:45:58.563Z,67.00
2023-03-17T02:48:28.074Z,66.90
2023-03-17T02:50:57.251Z,67.10
2023-03-17T02:53:26.391Z,67.30
2023-03-17T02:55:55.536Z,67.40
2023-03-17T02:58:24.637Z,67.40
2023-03-17T03:00:53.944Z,67.50
2023-03-17T03:03:23.055Z,67.50
2023-03-17T03:05:52.180Z,67.50
2023-03-17T03:08:22.137Z,67.60
2023-03-17T03:10:51.303Z,67.70
2023-03-17T03:13:20.832Z,67.90
2023-03-17T03:15:50.181Z,68.00
2023-03-17T03:18:19.472Z,69.60
2023-03-17T03:20:48.681Z,79.90
2023-03-17T03:23:17.805Z,68.30
2023-03-17T03:25:47.023Z,68.30
2023-03-17T03:28:16.274Z,68.30
2023-03-17T03:30:46.244Z,68.20
2023-03-17T03:33:16.114Z,68.30
2023-03-17T03:35:45.922Z,68.40
2023-03-17T03:38:15.108Z,68.50
2023-03-17T03:40:45.516Z,68.50
2023-03-17T03:43:22.826Z,68.60
2023-03-17T03:45:54.556Z,68.80
2023-03-17T03:48:24.324Z,68.80
2023-03-17T03:50:58.225Z,69.00
2023-03-17T03:53:28.542Z,69.10
2023-03-17T03:55:57.648Z,69.10
2023-03-17T03:58:26.920Z,69.30
2023-03-17T04:00:56.068Z,69.20
2023-03-17T04:03:25.279Z,69.30
2023-03-17T04:05:54.394Z,69.20
2023-03-17T04:08:23.469Z,70.10
2023-03-17T04:10:52.629Z,69.40
2023-03-17T04:13:22.267Z,69.40
2023-03-17T04:15:51.803Z,69.50
2023-03-17T04:18:20.940Z,69.60
2023-03-17T04:20:50.106Z,69.60
2023-03-17T04:23:19.196Z,69.60
2023-03-17T04:25:50.952Z,70.80
2023-03-17T04:28:21.120Z,75.20
2023-03-17T04:30:50.636Z,79.50
2023-03-17T04:33:20.415Z,69.70
2023-03-17T04:35:49.565Z,69.70
2023-03-17T04:38:18.656Z,69.90
2023-03-17T04:40:47.880Z,70.10
2023-03-17T04:43:16.974Z,70.20
2023-03-17T04:45:46.139Z,70.20
2023-03-17T04:48:15.406Z,70.20
2023-03-17T04:50:47.886Z,70.20
2023-03-17T04:53:17.046Z,70.30
2023-03-17T04:55:46.132Z,70.30
2023-03-17T04:58:29.465Z,70.40
2023-03-17T05:00:59.854Z,70.40
2023-03-17T05:03:30.261Z,70.40
2023-03-17T05:06:00.571Z,70.30
2023-03-17T05:08:29.731Z,70.30
2023-03-17T05:10:59.033Z,70.30
2023-03-17T05:13:28.166Z,70.80
2023-03-17T05:15:59.493Z,70.10
2023-03-17T05:19:29.821Z,70.10
2023-03-17T05:21:58.998Z,69.90
2023-03-17T05:24:28.224Z,69.90
2023-03-17T05:26:57.314Z,69.70
2023-03-17T05:29:26.415Z,69.70
2023-03-17T05:31:55.611Z,69.40
2023-03-17T05:34:24.836Z,69.30
2023-03-17T05:36:54.410Z,69.10
2023-03-17T05:39:23.543Z,69.00
2023-03-17T05:41:52.688Z,68.80
2023-03-17T05:44:21.739Z,68.60
2023-03-17T05:46:51.353Z,68.40
2023-03-17T05:49:20.649Z,68.20
2023-03-17T05:51:49.855Z,67.80
2023-03-17T05:54:18.994Z,67.70
2023-03-17T05:56:48.415Z,67.60
2023-03-17T05:59:18.508Z,67.40
2023-03-17T06:01:57.335Z,67.20
2023-03-17T06:04:26.689Z,66.90
2023-03-17T06:06:55.783Z,66.40
2023-03-17T06:09:25.021Z,66.00
2023-03-17T06:11:54.167Z,66.10
2023-03-17T06:14:25.383Z,66.00
2023-03-17T06:16:55.785Z,65.80
2023-03-17T06:19:24.871Z,65.70
2023-03-17T06:21:53.969Z,65.40
2023-03-17T06:24:23.111Z,65.20
2023-03-17T06:26:52.992Z,65.10
2023-03-17T06:29:22.729Z,64.80
2023-03-17T06:31:52.411Z,64.50
2023-03-17T06:34:24.025Z,64.20
2023-03-17T06:36:54.156Z,64.10
2023-03-17T06:39:23.536Z,64.00
2023-03-17T06:41:52.652Z,63.80
2023-03-17T06:44:22.255Z,63.70
2023-03-17T06:46:51.597Z,63.40
2023-03-17T06:49:21.189Z,63.70
2023-03-17T06:51:50.558Z,63.40
2023-03-17T06:54:21.408Z,63.10
2023-03-17T06:56:50.929Z,62.70
2023-03-17T06:59:21.830Z,62.50
2023-03-17T07:01:52.088Z,62.20
2023-03-17T07:04:21.320Z,61.90
2023-03-17T07:06:51.678Z,61.70
2023-03-17T07:09:20.956Z,61.70
2023-03-17T07:11:50.085Z,61.50
2023-03-17T07:14:19.688Z,61.40
2023-03-17T07:16:50.249Z,61.10
2023-03-17T07:19:19.583Z,61.00
2023-03-17T07:21:48.781Z,61.10
2023-03-17T07:24:17.962Z,61.00
2023-03-17T07:26:47.093Z,60.70
2023-03-17T07:29:17.457Z,60.60
2023-03-17T07:31:47.149Z,60.50
2023-03-17T07:34:16.631Z,60.30
2023-03-17T07:36:45.850Z,60.70
2023-03-17T07:39:15.643Z,59.80
2023-03-17T07:41:44.740Z,59.50
2023-03-17T07:44:13.844Z,59.20
2023-03-17T07:46:43.024Z,58.90
2023-03-17T07:49:12.899Z,58.60
2023-03-17T07:51:43.371Z,58.30
2023-03-17T07:54:15.012Z,58.10
2023-03-17T07:56:44.333Z,57.90
2023-03-17T07:59:13.620Z,57.80
2023-03-17T08:01:42.795Z,57.60
2023-03-17T08:04:13.271Z,57.30
2023-03-17T08:06:42.858Z,57.10
2023-03-17T08:09:12.114Z,56.80
2023-03-17T08:11:41.257Z,56.60
2023-03-17T08:14:11.823Z,56.40
2023-03-17T08:16:41.396Z,56.20
2023-03-17T08:19:11.189Z,56.10
2023-03-17T08:21:40.350Z,55.90
2023-03-17T08:24:09.913Z,55.70
2023-03-17T08:26:39.048Z,55.60
2023-03-17T08:29:08.371Z,55.30
2023-03-17T08:31:37.577Z,55.20
2023-03-17T08:34:07.553Z,54.90
2023-03-17T08:36:36.838Z,54.70
2023-03-17T08:39:05.946Z,54.50
2023-03-17T08:41:35.227Z,54.30
2023-03-17T08:44:04.465Z,54.10
2023-03-17T08:46:33.649Z,53.70
2023-03-17T08:49:03.413Z,53.70
2023-03-17T08:51:35.230Z,53.40
2023-03-17T08:54:05.878Z,53.20
2023-03-17T08:56:35.306Z,53.00
2023-03-17T08:59:06.665Z,52.80
2023-03-17T09:01:36.505Z,52.60
2023-03-17T09:04:05.887Z,52.30
2023-03-17T09:06:35.085Z,52.10
2023-03-17T09:09:04.229Z,51.80
2023-03-17T09:11:34.003Z,51.60
2023-03-17T09:14:03.321Z,51.40
2023-03-17T09:16:34.425Z,51.20
2023-03-17T09:19:04.340Z,51.00
2023-03-17T09:21:33.476Z,50.80
2023-03-17T09:24:02.855Z,50.30
2023-03-17T09:26:32.058Z,50.00
2023-03-17T09:29:03.108Z,49.70
2023-03-17T09:31:33.918Z,49.50
2023-03-17T09:34:06.308Z,49.20
2023-03-17T09:36:35.510Z,49.00
2023-03-17T09:39:04.636Z,48.70
2023-03-17T09:41:52.597Z,48.30
2023-03-17T09:44:40.237Z,48.30
2023-03-17T09:47:27.565Z,48.10
2023-03-17T09:50:01.164Z,47.80
2023-03-17T09:52:34.535Z,47.30
2023-03-17T09:55:08.425Z,47.20
2023-03-17T09:57:39.935Z,47.10
2023-03-17T10:00:19.073Z,46.90
2023-03-17T10:02:49.217Z,46.70
2023-03-17T10:05:36.211Z,46.30
2023-03-17T10:08:30.105Z,46.10
2023-03-17T10:11:16.328Z,45.80
2023-03-17T10:13:55.814Z,45.20
2023-03-17T10:16:43.023Z,45.10
2023-03-17T10:19:37.622Z,45.00
2023-03-17T10:22:19.509Z,44.80
2023-03-17T10:24:53.178Z,44.80
2023-03-17T10:27:23.210Z,44.70
2023-03-17T10:29:52.807Z,44.70
2023-03-17T10:32:22.548Z,44.50
2023-03-17T10:34:51.945Z,44.20
2023-03-17T10:37:24.138Z,44.00
2023-03-17T10:39:57.640Z,43.40
2023-03-17T10:42:29.235Z,42.40
2023-03-17T10:45:01.930Z,42.50
2023-03-17T10:47:33.366Z,42.40
2023-03-17T10:50:05.644Z,42.40
2023-03-17T10:52:40.809Z,42.30
2023-03-17T10:55:16.364Z,43.00
2023-03-17T10:57:55.855Z,42.10
2023-03-17T11:00:28.861Z,42.00
2023-03-17T11:02:59.711Z,41.70
2023-03-17T11:05:30.200Z,41.50
2023-03-17T11:08:15.063Z,41.50
2023-03-17T11:10:45.038Z,41.40
2023-03-17T11:13:17.458Z,41.40
2023-03-17T11:15:52.591Z,41.20
2023-03-17T11:18:39.763Z,41.20
2023-03-17T11:21:10.334Z,41.10
2023-03-17T11:23:42.546Z,40.90
2023-03-17T11:26:17.602Z,40.60
2023-03-17T11:29:19.783Z,40.60
2023-03-17T11:32:01.805Z,40.00
2023-03-17T11:35:01.386Z,40.00
2023-03-17T11:37:58.663Z,40.00
2023-03-17T11:40:46.481Z,39.90
2023-03-17T11:43:36.951Z,39.40
2023-03-17T11:46:11.302Z,39.30
2023-03-17T11:48:46.051Z,39.30
2023-03-17T11:51:41.536Z,39.30
2023-03-17T11:54:32.620Z,38.80
2023-03-17T11:57:05.944Z,38.30
2023-03-17T11:59:47.028Z,38.10
2023-03-17T12:02:28.680Z,38.30
2023-03-17T12:05:06.375Z,38.40
2023-03-17T12:07:59.345Z,38.30
2023-03-17T12:10:36.448Z,38.30
2023-03-17T12:13:18.005Z,38.10
2023-03-17T12:16:25.799Z,38.00
2023-03-17T12:19:03.505Z,37.50
2023-03-17T12:21:54.332Z,37.00
2023-03-17T12:24:28.812Z,36.50
2023-03-17T12:27:11.758Z,36.00
2023-03-17T12:29:51.895Z,35.80
2023-03-17T12:32:39.511Z,35.70
2023-03-17T12:35:31.470Z,35.70
2023-03-17T12:38:06.871Z,35.50
2023-03-17T12:40:47.426Z,35.10
2023-03-17T12:43:52.007Z,34.30
2023-03-17T12:46:43.405Z,33.90
2023-03-17T12:49:37.078Z,33.60
2023-03-17T12:52:34.240Z,33.50
2023-03-17T12:55:09.698Z,33.00
2023-03-17T12:57:41.971Z,33.00
2023-03-17T13:01:10.256Z,32.80
2023-03-17T13:03:57.505Z,32.50
2023-03-17T13:06:30.503Z,32.60
2023-03-17T13:09:33.247Z,32.50
2023-03-17T13:12:05.736Z,32.40
2023-03-17T13:14:41.160Z,32.40
2023-03-17T13:17:16.887Z,32.10
2023-03-17T13:20:08.857Z,31.90
2023-03-17T13:22:41.304Z,31.80
2023-03-17T13:25:33.598Z,31.80
2023-03-17T13:28:12.064Z,31.60
2023-03-17T13:30:56.090Z,31.50
2023-03-17T13:33:31.139Z,30.90
2023-03-17T13:36:00.649Z,29.40
2023-03-17T13:38:38.774Z,27.00
2023-03-17T13:41:35.734Z,25.70
2023-03-17T13:44:20.006Z,24.30
2023-03-17T13:46:49.453Z,23.30
2023-03-17T13:49:26.770Z,22.70
2023-03-17T13:52:12.485Z,22.30
2023-03-17T13:54:49.066Z,21.70
2023-03-17T13:57:38.246Z,20.30
2023-03-17T14:00:07.328Z,20.50
2023-03-17T14:02:39.585Z,20.80
2023-03-17T14:05:23.247Z,21.00
2023-03-17T14:07:57.248Z,21.60
2023-03-17T14:10:29.157Z,22.50
2023-03-17T14:13:03.869Z,23.60
2023-03-17T14:15:42.166Z,24.30
2023-03-17T14:18:30.750Z,24.80
2023-03-17T14:21:02.737Z,25.30
2023-03-17T14:23:33.545Z,25.90
2023-03-17T14:26:07.813Z,26.30
2023-03-17T14:28:37.868Z,26.40
2023-03-17T14:31:08.192Z,26.70
2023-03-17T14:33:39.824Z,27.10
2023-03-17T14:36:14.344Z,27.30
2023-03-17T14:38:50.069Z,27.50
2023-03-17T14:41:27.140Z,27.60
2023-03-17T14:44:00.501Z,27.80
2023-03-17T14:46:38.629Z,28.00
2023-03-17T14:49:19.856Z,28.20
2023-03-17T14:51:51.349Z,28.30
2023-03-17T14:54:23.544Z,28.50
2023-03-17T14:57:01.934Z,28.60
2023-03-17T14:59:41.464Z,28.80
2023-03-17T15:02:16.530Z,29.10
2023-03-17T15:04:58.227Z,29.30
2023-03-17T15:07:39.979Z,29.70
2023-03-17T15:10:31.059Z,29.90
2023-03-17T15:13:02.398Z,30.10
2023-03-17T15:15:34.372Z,30.10
2023-03-17T15:18:10.878Z,30.20
2023-03-17T15:20:43.143Z,31.00
2023-03-17T15:23:19.718Z,30.50
2023-03-17T15:25:55.697Z,30.60
2023-03-17T15:28:26.781Z,30.70
2023-03-17T15:31:05.898Z,30.90
2023-03-17T15:33:38.345Z,31.00
2023-03-17T15:36:25.454Z,31.10
2023-03-17T15:39:02.408Z,31.20
2023-03-17T15:41:31.522Z,31.30
2023-03-17T15:44:00.606Z,31.30
2023-03-17T15:46:33.540Z,31.40
2023-03-17T15:49:09.499Z,31.50
2023-03-17T15:51:38.879Z,31.70
2023-03-17T15:54:13.582Z,31.90
2023-03-17T15:56:43.361Z,31.90
2023-03-17T15:59:12.846Z,32.00
2023-03-17T16:01:42.038Z,32.50
2023-03-17T16:04:11.343Z,32.20
2023-03-17T16:06:40.507Z,32.30
2023-03-17T16:09:16.404Z,32.50
2023-03-17T16:11:45.550Z,32.80
2023-03-17T16:14:14.627Z,32.90
2023-03-17T16:16:45.857Z,33.00
2023-03-17T16:19:20.243Z,33.10
2023-03-17T16:21:49.470Z,33.40
2023-03-17T16:24:24.084Z,33.50
2023-03-17T16:26:53.731Z,34.40
2023-03-17T16:29:22.839Z,33.80
2023-03-17T16:31:52.169Z,34.10
2023-03-17T16:34:23.945Z,34.20
2023-03-17T16:36:54.633Z,34.30
2023-03-17T16:39:24.003Z,34.40
2023-03-17T16:41:53.591Z,34.40
2023-03-17T16:44:23.525Z,34.50
2023-03-17T16:46:52.723Z,34.60
2023-03-17T16:49:22.991Z,34.80
2023-03-17T16:51:52.474Z,35.00
2023-03-17T16:54:21.570Z,35.20
2023-03-17T16:56:50.762Z,35.20
2023-03-17T16:59:21.549Z,35.40
2023-03-17T17:01:50.999Z,35.50
2023-03-17T17:04:20.267Z,35.60
2023-03-17T17:06:50.048Z,35.90
2023-03-17T17:09:19.222Z,36.00
2023-03-17T17:11:48.360Z,36.20
2023-03-17T17:14:17.465Z,36.30
2023-03-17T17:16:46.931Z,36.40
2023-03-17T17:19:17.079Z,36.50
2023-03-17T17:21:46.349Z,36.60
2023-03-17T17:24:16.193Z,36.80
2023-03-17T17:26:45.377Z,36.90
2023-03-17T17:29:14.613Z,36.90
2023-03-17T17:31:44.002Z,37.10
2023-03-17T17:34:13.253Z,37.40
2023-03-17T17:36:42.506Z,37.50
2023-03-17T17:39:11.888Z,37.80
2023-03-17T17:41:41.055Z,38.00
2023-03-17T17:44:10.273Z,38.30
2023-03-17T17:46:39.414Z,38.40
2023-03-17T17:49:10.692Z,38.60
2023-03-17T17:51:40.019Z,38.80
2023-03-17T17:54:10.284Z,38.90
2023-03-17T17:56:40.391Z,39.20
2023-03-17T17:59:09.871Z,39.40
2023-03-17T18:01:39.594Z,39.50
2023-03-17T18:04:09.745Z,39.60
2023-03-17T18:06:39.251Z,39.60
2023-03-17T18:09:08.565Z,39.80
2023-03-17T18:11:40.311Z,40.40
2023-03-17T18:14:10.206Z,41.00
2023-03-17T18:16:40.153Z,41.40
2023-03-17T18:19:12.652Z,41.70
2023-03-17T18:21:42.096Z,42.00
2023-03-17T18:24:11.303Z,42.10
2023-03-17T18:26:41.651Z,42.40
2023-03-17T18:29:12.224Z,42.50
2023-03-17T18:31:44.937Z,42.60
2023-03-17T18:34:22.732Z,42.70
2023-03-17T18:36:52.841Z,43.00
2023-03-17T18:39:21.927Z,43.20
2023-03-17T18:41:51.164Z,43.40
2023-03-17T18:44:22.141Z,43.70
2023-03-17T18:46:51.352Z,44.00
2023-03-17T18:49:20.660Z,44.20
2023-03-17T18:51:49.767Z,44.40
2023-03-17T18:54:20.481Z,44.80
2023-03-17T18:56:49.661Z,44.90
2023-03-17T18:59:18.714Z,45.10
2023-03-17T19:01:47.806Z,45.30
2023-03-17T19:04:16.909Z,45.60
2023-03-17T19:06:46.590Z,45.90
2023-03-17T19:09:15.736Z,46.20
2023-03-17T19:11:44.870Z,46.40
2023-03-17T19:14:14.138Z,46.20
2023-03-17T19:16:43.273Z,46.70
2023-03-17T19:19:12.428Z,46.90
2023-03-17T19:21:41.955Z,47.10
2023-03-17T19:24:12.303Z,47.30
2023-03-17T19:26:41.553Z,47.40
2023-03-17T19:29:10.897Z,47.60
2023-03-17T19:31:41.661Z,47.70
2023-03-17T19:34:12.967Z,47.80
2023-03-17T19:36:45.871Z,47.90
2023-03-17T19:39:15.454Z,48.20
2023-03-17T19:41:44.743Z,48.30
2023-03-17T19:44:14.451Z,48.40
2023-03-17T19:46:43.551Z,48.70
2023-03-17T19:49:12.690Z,48.80
2023-03-17T19:51:42.184Z,49.10
2023-03-17T19:54:11.274Z,49.20
2023-03-17T19:56:40.516Z,49.40
2023-03-17T19:59:09.644Z,49.70
2023-03-17T20:01:38.858Z,49.70
2023-03-17T20:04:09.842Z,49.80
2023-03-17T20:06:39.052Z,49.90
2023-03-17T20:09:09.017Z,50.10
2023-03-17T20:11:38.480Z,50.20
2023-03-17T20:14:08.055Z,50.50
2023-03-17T20:16:37.208Z,50.70
2023-03-17T20:19:06.659Z,51.00
2023-03-17T20:21:35.954Z,51.30
2023-03-17T20:24:05.668Z,51.60
2023-03-17T20:26:35.080Z,51.90
2023-03-17T20:29:04.270Z,52.10
2023-03-17T20:31:33.940Z,52.30
2023-03-17T20:34:03.253Z,52.50
2023-03-17T20:36:32.346Z,53.20
2023-03-17T20:39:01.472Z,52.70
2023-03-17T20:41:31.000Z,52.80
2023-03-17T20:44:00.316Z,52.90
2023-03-17T20:46:29.453Z,53.00
2023-03-17T20:48:59.369Z,53.10
2023-03-17T20:51:28.447Z,53.30
2023-03-17T20:53:57.987Z,53.40
2023-03-17T20:56:29.745Z,53.40
2023-03-17T20:59:01.250Z,53.50
2023-03-17T21:01:36.324Z,53.60
2023-03-17T21:04:08.660Z,53.80
2023-03-17T21:06:38.595Z,53.90
2023-03-17T21:09:09.484Z,54.20
2023-03-17T21:11:38.725Z,54.30
2023-03-17T21:14:08.481Z,54.50
2023-03-17T21:16:37.916Z,54.70
2023-03-17T21:19:09.688Z,54.90
2023-03-17T21:21:40.056Z,55.10
2023-03-17T21:24:23.745Z,55.20
2023-03-17T21:26:53.011Z,55.30
2023-03-17T21:29:22.840Z,55.40
2023-03-17T21:31:52.648Z,55.50
2023-03-17T21:34:21.860Z,55.70
2023-03-17T21:36:51.817Z,55.70
2023-03-17T21:39:21.175Z,55.90
2023-03-17T21:41:50.986Z,56.00
2023-03-17T21:44:20.309Z,56.20
2023-03-17T21:46:49.884Z,56.20
2023-03-17T21:49:19.187Z,56.40
2023-03-17T21:51:48.330Z,56.50
2023-03-17T21:54:18.141Z,56.70
2023-03-17T21:56:49.447Z,56.80
2023-03-17T21:59:18.923Z,56.90
2023-03-17T22:01:52.088Z,57.10
2023-03-17T22:04:21.291Z,57.20
2023-03-17T22:06:51.871Z,57.20
2023-03-17T22:09:21.889Z,57.40
2023-03-17T22:11:50.993Z,57.40
2023-03-17T22:14:20.831Z,57.60
2023-03-17T22:16:50.207Z,57.60
2023-03-17T22:19:21.232Z,57.60
2023-03-17T22:21:50.630Z,57.70
2023-03-17T22:24:19.814Z,57.90
2023-03-17T22:26:49.228Z,58.10
2023-03-17T22:29:18.911Z,58.30
2023-03-17T22:31:48.123Z,58.40
2023-03-17T22:34:17.412Z,58.60
2023-03-17T22:36:46.513Z,58.60
2023-03-17T22:39:16.148Z,58.90
2023-03-17T22:41:45.221Z,60.50
2023-03-17T22:44:14.441Z,60.40
2023-03-17T22:46:43.505Z,59.20
2023-03-17T22:49:12.971Z,59.30
2023-03-17T22:51:42.767Z,59.40
2023-03-17T22:54:12.764Z,59.60
2023-03-17T22:56:41.942Z,59.70
2023-03-17T22:59:11.540Z,59.80
2023-03-17T23:01:40.944Z,59.90
2023-03-17T23:04:10.221Z,59.90
2023-03-17T23:06:39.313Z,60.00
2023-03-17T23:09:09.494Z,60.10
2023-03-17T23:11:38.533Z,60.20
2023-03-17T23:14:07.757Z,60.20
2023-03-17T23:16:37.837Z,60.20
2023-03-17T23:19:06.968Z,60.30
2023-03-17T23:21:38.767Z,60.60
2023-03-17T23:24:08.757Z,60.10
2023-03-17T23:26:37.942Z,60.80
2023-03-17T23:29:09.247Z,60.90
2023-03-17T23:31:39.664Z,60.90
2023-03-17T23:34:09.171Z,61.00
2023-03-17T23:36:41.020Z,61.20
2023-03-17T23:39:10.188Z,61.40
2023-03-17T23:41:39.325Z,61.50
2023-03-17T23:44:10.206Z,61.40
2023-03-17T23:46:40.252Z,61.40
2023-03-17T23:49:09.330Z,61.40
2023-03-17T23:51:39.192Z,61.40
2023-03-17T23:54:10.180Z,61.50
2023-03-17T23:56:39.562Z,61.60
2023-03-17T23:59:10.741Z,61.70
